sensor_id;sensor_type;location;lat;lon;timestamp;P1;durP1;ratioP1;P2;durP2;ratioP2
51985;SDS011;38002;53.296;6.600;2023-05-15T00:04:07;43.03;;;24.98;;
51985;SDS011;38002;53.296;6.600;2023-05-15T00:09:08;36.38;;;24.45;;
51985;SDS011;38002;53.296;6.600;2023-05-15T00:14:08;42.58;;;24.00;;
51985;SDS011;38002;53.296;6.600;2023-05-15T00:19:09;42.90;;;23.13;;
51985;SDS011;38002;53.296;6.600;2023-05-15T00:24:09;32.17;;;19.80;;
51985;SDS011;38002;53.296;6.600;2023-05-15T00:29:10;40.37;;;23.43;;
51985;SDS011;38002;53.296;6.600;2023-05-15T00:34:10;38.55;;;23.05;;
51985;SDS011;38002;53.296;6.600;2023-05-15T00:39:11;41.03;;;22.25;;
51985;SDS011;38002;53.296;6.600;2023-05-15T00:44:11;42.08;;;24.17;;
51985;SDS011;38002;53.296;6.600;2023-05-15T00:49:12;38.83;;;22.63;;
51985;SDS011;38002;53.296;6.600;2023-05-15T00:54:13;43.77;;;24.47;;
51985;SDS011;38002;53.296;6.600;2023-05-15T00:59:14;50.60;;;25.65;;
51985;SDS011;38002;53.296;6.600;2023-05-15T01:04:15;54.05;;;27.95;;
51985;SDS011;38002;53.296;6.600;2023-05-15T01:09:15;48.15;;;25.10;;
51985;SDS011;38002;53.296;6.600;2023-05-15T01:14:18;42.17;;;24.50;;
51985;SDS011;38002;53.296;6.600;2023-05-15T01:19:18;44.00;;;23.63;;
51985;SDS011;38002;53.296;6.600;2023-05-15T01:35:09;43.47;;;22.13;;
51985;SDS011;38002;53.296;6.600;2023-05-15T01:40:16;49.00;;;25.13;;
51985;SDS011;38002;53.296;6.600;2023-05-15T01:45:20;38.58;;;21.90;;
51985;SDS011;38002;53.296;6.600;2023-05-15T01:50:23;45.22;;;24.42;;
51985;SDS011;38002;53.296;6.600;2023-05-15T01:55:25;42.00;;;22.80;;
51985;SDS011;38002;53.296;6.600;2023-05-15T02:00:28;50.78;;;25.83;;
51985;SDS011;38002;53.296;6.600;2023-05-15T02:05:30;56.85;;;28.77;;
51985;SDS011;38002;53.296;6.600;2023-05-15T02:10:31;57.90;;;27.73;;
51985;SDS011;38002;53.296;6.600;2023-05-15T02:15:32;47.65;;;26.52;;
51985;SDS011;38002;53.296;6.600;2023-05-15T02:20:33;51.67;;;25.55;;
51985;SDS011;38002;53.296;6.600;2023-05-15T02:31:19;56.67;;;27.67;;
51985;SDS011;38002;53.296;6.600;2023-05-15T02:36:32;45.03;;;23.60;;
51985;SDS011;38002;53.296;6.600;2023-05-15T02:41:39;45.40;;;23.80;;
51985;SDS011;38002;53.296;6.600;2023-05-15T02:46:40;45.47;;;23.83;;
51985;SDS011;38002;53.296;6.600;2023-05-15T02:51:41;45.47;;;25.08;;
51985;SDS011;38002;53.296;6.600;2023-05-15T02:56:41;43.42;;;22.63;;
51985;SDS011;38002;53.296;6.600;2023-05-15T03:01:42;43.30;;;21.73;;
51985;SDS011;38002;53.296;6.600;2023-05-15T03:06:42;43.53;;;23.55;;
51985;SDS011;38002;53.296;6.600;2023-05-15T03:11:43;42.60;;;23.52;;
51985;SDS011;38002;53.296;6.600;2023-05-15T03:16:43;37.03;;;20.38;;
51985;SDS011;38002;53.296;6.600;2023-05-15T03:21:44;35.60;;;18.77;;
51985;SDS011;38002;53.296;6.600;2023-05-15T03:26:44;34.13;;;17.85;;
51985;SDS011;38002;53.296;6.600;2023-05-15T03:31:45;29.08;;;16.20;;
51985;SDS011;38002;53.296;6.600;2023-05-15T03:36:45;26.02;;;13.55;;
51985;SDS011;38002;53.296;6.600;2023-05-15T03:41:46;27.90;;;17.52;;
51985;SDS011;38002;53.296;6.600;2023-05-15T03:46:46;27.85;;;16.95;;
51985;SDS011;38002;53.296;6.600;2023-05-15T03:51:47;30.17;;;18.75;;
51985;SDS011;38002;53.296;6.600;2023-05-15T03:56:47;26.27;;;16.60;;
51985;SDS011;38002;53.296;6.600;2023-05-15T04:01:48;35.03;;;22.00;;
51985;SDS011;38002;53.296;6.600;2023-05-15T04:06:49;29.83;;;21.80;;
51985;SDS011;38002;53.296;6.600;2023-05-15T04:11:49;27.03;;;20.87;;
51985;SDS011;38002;53.296;6.600;2023-05-15T04:16:50;25.13;;;18.08;;
51985;SDS011;38002;53.296;6.600;2023-05-15T04:21:50;27.60;;;16.80;;
51985;SDS011;38002;53.296;6.600;2023-05-15T04:26:51;19.42;;;13.30;;
51985;SDS011;38002;53.296;6.600;2023-05-15T04:31:51;12.30;;;10.93;;
51985;SDS011;38002;53.296;6.600;2023-05-15T04:36:52;11.55;;;10.25;;
51985;SDS011;38002;53.296;6.600;2023-05-15T04:41:53;11.85;;;10.07;;
51985;SDS011;38002;53.296;6.600;2023-05-15T04:46:53;15.35;;;12.52;;
51985;SDS011;38002;53.296;6.600;2023-05-15T04:51:54;18.63;;;11.70;;
51985;SDS011;38002;53.296;6.600;2023-05-15T04:56:54;17.25;;;14.77;;
51985;SDS011;38002;53.296;6.600;2023-05-15T05:01:54;21.48;;;16.13;;
51985;SDS011;38002;53.296;6.600;2023-05-15T05:06:55;19.40;;;15.52;;
51985;SDS011;38002;53.296;6.600;2023-05-15T05:11:59;20.90;;;15.63;;
51985;SDS011;38002;53.296;6.600;2023-05-15T05:17:00;16.48;;;13.00;;
51985;SDS011;38002;53.296;6.600;2023-05-15T05:22:02;25.65;;;16.33;;
51985;SDS011;38002;53.296;6.600;2023-05-15T05:32:04;20.25;;;15.75;;
51985;SDS011;38002;53.296;6.600;2023-05-15T05:37:06;22.63;;;15.13;;
51985;SDS011;38002;53.296;6.600;2023-05-15T05:42:06;19.70;;;16.17;;
51985;SDS011;38002;53.296;6.600;2023-05-15T05:47:07;20.60;;;16.67;;
51985;SDS011;38002;53.296;6.600;2023-05-15T05:52:07;20.13;;;14.50;;
51985;SDS011;38002;53.296;6.600;2023-05-15T05:57:08;21.02;;;17.50;;
51985;SDS011;38002;53.296;6.600;2023-05-15T06:02:08;21.13;;;15.80;;
51985;SDS011;38002;53.296;6.600;2023-05-15T06:07:10;18.60;;;14.73;;
51985;SDS011;38002;53.296;6.600;2023-05-15T06:12:11;12.52;;;10.40;;
51985;SDS011;38002;53.296;6.600;2023-05-15T06:17:11;12.23;;;10.93;;
51985;SDS011;38002;53.296;6.600;2023-05-15T06:22:12;15.52;;;11.48;;
51985;SDS011;38002;53.296;6.600;2023-05-15T06:27:12;10.38;;;8.38;;
51985;SDS011;38002;53.296;6.600;2023-05-15T06:32:13;8.52;;;7.38;;
51985;SDS011;38002;53.296;6.600;2023-05-15T06:37:13;8.48;;;7.65;;
51985;SDS011;38002;53.296;6.600;2023-05-15T06:42:13;9.07;;;7.73;;
51985;SDS011;38002;53.296;6.600;2023-05-15T06:47:14;7.77;;;6.63;;
51985;SDS011;38002;53.296;6.600;2023-05-15T06:52:15;7.23;;;6.63;;
51985;SDS011;38002;53.296;6.600;2023-05-15T06:57:16;9.40;;;8.40;;
51985;SDS011;38002;53.296;6.600;2023-05-15T07:02:16;8.05;;;7.25;;
51985;SDS011;38002;53.296;6.600;2023-05-15T07:07:17;6.50;;;6.00;;
51985;SDS011;38002;53.296;6.600;2023-05-15T07:12:17;9.83;;;7.30;;
51985;SDS011;38002;53.296;6.600;2023-05-15T07:17:18;7.60;;;6.80;;
51985;SDS011;38002;53.296;6.600;2023-05-15T07:22:18;8.63;;;7.80;;
51985;SDS011;38002;53.296;6.600;2023-05-15T07:27:19;6.47;;;5.73;;
51985;SDS011;38002;53.296;6.600;2023-05-15T07:32:19;6.10;;;5.60;;
51985;SDS011;38002;53.296;6.600;2023-05-15T07:37:20;9.32;;;7.80;;
51985;SDS011;38002;53.296;6.600;2023-05-15T07:42:22;11.68;;;7.80;;
51985;SDS011;38002;53.296;6.600;2023-05-15T07:47:24;7.53;;;6.93;;
51985;SDS011;38002;53.296;6.600;2023-05-15T07:52:25;5.93;;;5.43;;
51985;SDS011;38002;53.296;6.600;2023-05-15T07:57:25;7.03;;;6.40;;
51985;SDS011;38002;53.296;6.600;2023-05-15T08:02:26;6.50;;;5.90;;
51985;SDS011;38002;53.296;6.600;2023-05-15T08:07:26;12.05;;;7.70;;
51985;SDS011;38002;53.296;6.600;2023-05-15T08:12:27;12.17;;;7.20;;
51985;SDS011;38002;53.296;6.600;2023-05-15T08:17:27;9.00;;;6.67;;
51985;SDS011;38002;53.296;6.600;2023-05-15T08:22:28;6.72;;;6.13;;
51985;SDS011;38002;53.296;6.600;2023-05-15T08:27:29;8.90;;;6.83;;
51985;SDS011;38002;53.296;6.600;2023-05-15T08:32:30;6.10;;;5.47;;
51985;SDS011;38002;53.296;6.600;2023-05-15T08:37:30;6.90;;;6.17;;
51985;SDS011;38002;53.296;6.600;2023-05-15T08:42:47;10.27;;;7.68;;
51985;SDS011;38002;53.296;6.600;2023-05-15T08:47:49;9.13;;;7.47;;
51985;SDS011;38002;53.296;6.600;2023-05-15T08:52:50;8.83;;;7.30;;
51985;SDS011;38002;53.296;6.600;2023-05-15T08:57:53;6.13;;;5.55;;
51985;SDS011;38002;53.296;6.600;2023-05-15T09:02:54;6.90;;;6.40;;
51985;SDS011;38002;53.296;6.600;2023-05-15T09:07:57;5.68;;;5.18;;
51985;SDS011;38002;53.296;6.600;2023-05-15T09:12:59;6.90;;;6.20;;
51985;SDS011;38002;53.296;6.600;2023-05-15T09:18:01;5.75;;;5.13;;
51985;SDS011;38002;53.296;6.600;2023-05-15T09:23:02;7.20;;;5.73;;
51985;SDS011;38002;53.296;6.600;2023-05-15T09:28:05;8.00;;;5.22;;
51985;SDS011;38002;53.296;6.600;2023-05-15T09:33:06;6.53;;;5.93;;
51985;SDS011;38002;53.296;6.600;2023-05-15T09:38:09;7.90;;;7.15;;
51985;SDS011;38002;53.296;6.600;2023-05-15T09:43:11;6.13;;;5.53;;
51985;SDS011;38002;53.296;6.600;2023-05-15T09:48:11;6.20;;;5.70;;
51985;SDS011;38002;53.296;6.600;2023-05-15T09:53:12;8.07;;;6.23;;
51985;SDS011;38002;53.296;6.600;2023-05-15T09:58:13;7.60;;;6.20;;
51985;SDS011;38002;53.296;6.600;2023-05-15T10:03:16;6.82;;;6.20;;
51985;SDS011;38002;53.296;6.600;2023-05-15T10:08:25;6.57;;;5.28;;
51985;SDS011;38002;53.296;6.600;2023-05-15T10:13:27;6.57;;;5.82;;
51985;SDS011;38002;53.296;6.600;2023-05-15T10:18:31;5.95;;;5.07;;
51985;SDS011;38002;53.296;6.600;2023-05-15T10:23:35;6.38;;;5.78;;
51985;SDS011;38002;53.296;6.600;2023-05-15T10:28:36;5.20;;;4.70;;
51985;SDS011;38002;53.296;6.600;2023-05-15T10:33:38;5.28;;;4.97;;
51985;SDS011;38002;53.296;6.600;2023-05-15T10:38:39;7.75;;;5.78;;
51985;SDS011;38002;53.296;6.600;2023-05-15T10:43:41;5.93;;;5.38;;
51985;SDS011;38002;53.296;6.600;2023-05-15T10:48:43;5.30;;;4.85;;
51985;SDS011;38002;53.296;6.600;2023-05-15T10:53:44;7.57;;;5.73;;
51985;SDS011;38002;53.296;6.600;2023-05-15T10:58:48;6.50;;;5.47;;
51985;SDS011;38002;53.296;6.600;2023-05-15T11:03:49;6.07;;;5.47;;
51985;SDS011;38002;53.296;6.600;2023-05-15T11:08:50;6.47;;;4.80;;
51985;SDS011;38002;53.296;6.600;2023-05-15T11:19:08;5.57;;;5.13;;
51985;SDS011;38002;53.296;6.600;2023-05-15T11:24:31;5.63;;;5.13;;
51985;SDS011;38002;53.296;6.600;2023-05-15T11:35:02;5.03;;;4.57;;
51985;SDS011;38002;53.296;6.600;2023-05-15T11:40:04;7.27;;;5.83;;
51985;SDS011;38002;53.296;6.600;2023-05-15T11:45:09;5.72;;;5.07;;
51985;SDS011;38002;53.296;6.600;2023-05-15T11:50:10;6.05;;;4.80;;
51985;SDS011;38002;53.296;6.600;2023-05-15T11:55:11;6.05;;;5.20;;
51985;SDS011;38002;53.296;6.600;2023-05-15T12:00:12;5.90;;;5.32;;
51985;SDS011;38002;53.296;6.600;2023-05-15T12:05:13;6.25;;;5.47;;
51985;SDS011;38002;53.296;6.600;2023-05-15T12:10:13;6.53;;;4.80;;
51985;SDS011;38002;53.296;6.600;2023-05-15T12:15:15;6.50;;;4.67;;
51985;SDS011;38002;53.296;6.600;2023-05-15T12:25:17;5.43;;;4.40;;
51985;SDS011;38002;53.296;6.600;2023-05-15T12:30:17;5.50;;;5.00;;
51985;SDS011;38002;53.296;6.600;2023-05-15T12:35:18;5.57;;;5.17;;
51985;SDS011;38002;53.296;6.600;2023-05-15T12:40:19;4.60;;;4.20;;
51985;SDS011;38002;53.296;6.600;2023-05-15T12:50:21;5.63;;;5.10;;
51985;SDS011;38002;53.296;6.600;2023-05-15T12:55:23;4.93;;;4.50;;
51985;SDS011;38002;53.296;6.600;2023-05-15T13:00:25;8.75;;;5.80;;
51985;SDS011;38002;53.296;6.600;2023-05-15T13:05:30;9.52;;;4.00;;
51985;SDS011;38002;53.296;6.600;2023-05-15T13:10:32;6.00;;;5.50;;
51985;SDS011;38002;53.296;6.600;2023-05-15T13:15:36;6.28;;;5.68;;
51985;SDS011;38002;53.296;6.600;2023-05-15T13:20:37;4.50;;;4.10;;
51985;SDS011;38002;53.296;6.600;2023-05-15T13:25:42;13.32;;;5.68;;
51985;SDS011;38002;53.296;6.600;2023-05-15T13:30:43;5.63;;;4.30;;
51985;SDS011;38002;53.296;6.600;2023-05-15T13:35:43;6.63;;;5.53;;
51985;SDS011;38002;53.296;6.600;2023-05-15T13:40:44;4.50;;;4.00;;
51985;SDS011;38002;53.296;6.600;2023-05-15T13:45:45;5.53;;;4.63;;
51985;SDS011;38002;53.296;6.600;2023-05-15T13:50:45;6.40;;;4.93;;
51985;SDS011;38002;53.296;6.600;2023-05-15T13:55:46;4.73;;;4.27;;
51985;SDS011;38002;53.296;6.600;2023-05-15T14:00:47;8.23;;;5.00;;
51985;SDS011;38002;53.296;6.600;2023-05-15T14:05:47;5.63;;;5.07;;
51985;SDS011;38002;53.296;6.600;2023-05-15T14:10:48;7.87;;;5.07;;
51985;SDS011;38002;53.296;6.600;2023-05-15T14:15:48;5.77;;;4.97;;
51985;SDS011;38002;53.296;6.600;2023-05-15T14:20:49;7.00;;;5.30;;
51985;SDS011;38002;53.296;6.600;2023-05-15T14:25:49;7.40;;;5.53;;
51985;SDS011;38002;53.296;6.600;2023-05-15T14:30:50;5.60;;;5.10;;
51985;SDS011;38002;53.296;6.600;2023-05-15T14:35:51;4.90;;;4.40;;
51985;SDS011;38002;53.296;6.600;2023-05-15T14:40:51;5.47;;;3.40;;
51985;SDS011;38002;53.296;6.600;2023-05-15T14:45:52;5.70;;;4.03;;
51985;SDS011;38002;53.296;6.600;2023-05-15T14:50:52;5.47;;;5.00;;
51985;SDS011;38002;53.296;6.600;2023-05-15T14:55:53;5.13;;;4.57;;
51985;SDS011;38002;53.296;6.600;2023-05-15T15:00:54;5.30;;;4.80;;
51985;SDS011;38002;53.296;6.600;2023-05-15T15:05:55;5.10;;;4.67;;
51985;SDS011;38002;53.296;6.600;2023-05-15T15:10:55;5.33;;;4.93;;
51985;SDS011;38002;53.296;6.600;2023-05-15T15:15:56;7.10;;;4.90;;
51985;SDS011;38002;53.296;6.600;2023-05-15T15:20:56;6.90;;;5.27;;
51985;SDS011;38002;53.296;6.600;2023-05-15T15:25:57;6.93;;;5.67;;
51985;SDS011;38002;53.296;6.600;2023-05-15T15:30:58;6.33;;;5.20;;
51985;SDS011;38002;53.296;6.600;2023-05-15T15:35:59;7.00;;;5.35;;
51985;SDS011;38002;53.296;6.600;2023-05-15T15:41:00;6.93;;;5.13;;
51985;SDS011;38002;53.296;6.600;2023-05-15T15:46:02;5.40;;;5.00;;
51985;SDS011;38002;53.296;6.600;2023-05-15T15:51:02;5.23;;;4.63;;
51985;SDS011;38002;53.296;6.600;2023-05-15T15:56:03;11.30;;;5.97;;
51985;SDS011;38002;53.296;6.600;2023-05-15T16:01:04;5.60;;;4.53;;
51985;SDS011;38002;53.296;6.600;2023-05-15T16:06:04;6.63;;;6.03;;
51985;SDS011;38002;53.296;6.600;2023-05-15T16:11:05;6.27;;;5.67;;
51985;SDS011;38002;53.296;6.600;2023-05-15T16:16:06;5.73;;;4.40;;
51985;SDS011;38002;53.296;6.600;2023-05-15T16:21:06;6.97;;;6.27;;
51985;SDS011;38002;53.296;6.600;2023-05-15T16:26:07;8.47;;;6.63;;
51985;SDS011;38002;53.296;6.600;2023-05-15T16:31:09;8.07;;;5.45;;
51985;SDS011;38002;53.296;6.600;2023-05-15T16:36:09;8.20;;;5.50;;
51985;SDS011;38002;53.296;6.600;2023-05-15T16:41:10;5.07;;;4.60;;
51985;SDS011;38002;53.296;6.600;2023-05-15T16:46:10;3.60;;;3.37;;
51985;SDS011;38002;53.296;6.600;2023-05-15T16:51:11;7.47;;;5.00;;
51985;SDS011;38002;53.296;6.600;2023-05-15T16:56:11;4.73;;;4.30;;
51985;SDS011;38002;53.296;6.600;2023-05-15T17:01:12;5.68;;;5.10;;
51985;SDS011;38002;53.296;6.600;2023-05-15T17:06:13;5.63;;;5.13;;
51985;SDS011;38002;53.296;6.600;2023-05-15T17:11:13;5.07;;;4.57;;
51985;SDS011;38002;53.296;6.600;2023-05-15T17:16:14;5.73;;;3.93;;
51985;SDS011;38002;53.296;6.600;2023-05-15T17:21:14;4.40;;;4.00;;
51985;SDS011;38002;53.296;6.600;2023-05-15T17:26:15;5.07;;;4.30;;
51985;SDS011;38002;53.296;6.600;2023-05-15T17:31:15;5.50;;;4.07;;
51985;SDS011;38002;53.296;6.600;2023-05-15T17:36:16;4.55;;;3.72;;
51985;SDS011;38002;53.296;6.600;2023-05-15T17:41:16;4.80;;;3.78;;
51985;SDS011;38002;53.296;6.600;2023-05-15T17:46:17;4.60;;;3.40;;
51985;SDS011;38002;53.296;6.600;2023-05-15T17:51:18;3.53;;;2.53;;
51985;SDS011;38002;53.296;6.600;2023-05-15T17:56:18;2.38;;;2.20;;
51985;SDS011;38002;53.296;6.600;2023-05-15T18:01:19;3.15;;;2.53;;
51985;SDS011;38002;53.296;6.600;2023-05-15T18:06:20;2.63;;;2.43;;
51985;SDS011;38002;53.296;6.600;2023-05-15T18:11:20;3.30;;;3.07;;
51985;SDS011;38002;53.296;6.600;2023-05-15T18:16:21;3.15;;;2.85;;
51985;SDS011;38002;53.296;6.600;2023-05-15T18:21:21;5.65;;;2.28;;
51985;SDS011;38002;53.296;6.600;2023-05-15T18:26:22;2.30;;;2.10;;
51985;SDS011;38002;53.296;6.600;2023-05-15T18:31:22;2.50;;;2.33;;
51985;SDS011;38002;53.296;6.600;2023-05-15T18:36:23;8.52;;;2.10;;
51985;SDS011;38002;53.296;6.600;2023-05-15T18:41:23;3.00;;;2.10;;
51985;SDS011;38002;53.296;6.600;2023-05-15T18:46:26;1.27;;;1.02;;
51985;SDS011;38002;53.296;6.600;2023-05-15T18:51:27;3.30;;;1.10;;
51985;SDS011;38002;53.296;6.600;2023-05-15T18:56:30;2.65;;;1.30;;
51985;SDS011;38002;53.296;6.600;2023-05-15T19:01:30;3.55;;;0.95;;
51985;SDS011;38002;53.296;6.600;2023-05-15T19:06:31;1.45;;;1.35;;
51985;SDS011;38002;53.296;6.600;2023-05-15T19:11:32;1.70;;;1.50;;
51985;SDS011;38002;53.296;6.600;2023-05-15T19:16:32;2.63;;;1.30;;
51985;SDS011;38002;53.296;6.600;2023-05-15T19:21:32;6.72;;;1.00;;
51985;SDS011;38002;53.296;6.600;2023-05-15T19:26:33;4.03;;;1.23;;
51985;SDS011;38002;53.296;6.600;2023-05-15T19:31:33;2.28;;;1.35;;
51985;SDS011;38002;53.296;6.600;2023-05-15T19:36:34;5.05;;;1.67;;
51985;SDS011;38002;53.296;6.600;2023-05-15T19:41:34;11.25;;;1.80;;
51985;SDS011;38002;53.296;6.600;2023-05-15T19:46:35;4.93;;;1.65;;
51985;SDS011;38002;53.296;6.600;2023-05-15T19:51:35;3.13;;;1.20;;
51985;SDS011;38002;53.296;6.600;2023-05-15T19:56:36;4.57;;;0.95;;
51985;SDS011;38002;53.296;6.600;2023-05-15T20:01:37;4.25;;;0.98;;
51985;SDS011;38002;53.296;6.600;2023-05-15T20:06:43;8.07;;;1.67;;
51985;SDS011;38002;53.296;6.600;2023-05-15T20:11:44;3.03;;;0.90;;
51985;SDS011;38002;53.296;6.600;2023-05-15T20:16:44;6.20;;;1.25;;
51985;SDS011;38002;53.296;6.600;2023-05-15T20:21:45;8.48;;;1.48;;
51985;SDS011;38002;53.296;6.600;2023-05-15T20:26:45;8.20;;;1.65;;
51985;SDS011;38002;53.296;6.600;2023-05-15T20:31:46;8.73;;;1.67;;
51985;SDS011;38002;53.296;6.600;2023-05-15T20:36:46;9.13;;;2.10;;
51985;SDS011;38002;53.296;6.600;2023-05-15T20:41:51;4.68;;;1.60;;
51985;SDS011;38002;53.296;6.600;2023-05-15T20:46:52;8.40;;;1.60;;
51985;SDS011;38002;53.296;6.600;2023-05-15T20:51:52;3.78;;;1.52;;
51985;SDS011;38002;53.296;6.600;2023-05-15T20:56:53;7.18;;;1.85;;
51985;SDS011;38002;53.296;6.600;2023-05-15T21:01:53;11.70;;;1.83;;
51985;SDS011;38002;53.296;6.600;2023-05-15T21:06:54;9.93;;;2.13;;
51985;SDS011;38002;53.296;6.600;2023-05-15T21:11:54;5.13;;;1.65;;
51985;SDS011;38002;53.296;6.600;2023-05-15T21:16:55;9.35;;;1.75;;
51985;SDS011;38002;53.296;6.600;2023-05-15T21:21:55;9.15;;;2.35;;
51985;SDS011;38002;53.296;6.600;2023-05-15T21:26:56;11.45;;;2.72;;
51985;SDS011;38002;53.296;6.600;2023-05-15T21:31:56;12.95;;;2.10;;
51985;SDS011;38002;53.296;6.600;2023-05-15T21:36:58;13.75;;;2.13;;
51985;SDS011;38002;53.296;6.600;2023-05-15T21:41:58;7.82;;;1.77;;
51985;SDS011;38002;53.296;6.600;2023-05-15T21:47:00;14.32;;;2.20;;
51985;SDS011;38002;53.296;6.600;2023-05-15T21:52:01;10.15;;;2.28;;
51985;SDS011;38002;53.296;6.600;2023-05-15T21:57:01;16.20;;;3.45;;
51985;SDS011;38002;53.296;6.600;2023-05-15T22:02:02;16.77;;;2.13;;
51985;SDS011;38002;53.296;6.600;2023-05-15T22:07:02;15.70;;;2.58;;
51985;SDS011;38002;53.296;6.600;2023-05-15T22:12:03;9.23;;;2.10;;
51985;SDS011;38002;53.296;6.600;2023-05-15T22:17:04;10.80;;;2.30;;
51985;SDS011;38002;53.296;6.600;2023-05-15T22:22:04;19.55;;;3.47;;
51985;SDS011;38002;53.296;6.600;2023-05-15T22:27:05;17.35;;;2.90;;
51985;SDS011;38002;53.296;6.600;2023-05-15T22:32:05;20.42;;;2.72;;
51985;SDS011;38002;53.296;6.600;2023-05-15T22:37:06;15.95;;;2.53;;
51985;SDS011;38002;53.296;6.600;2023-05-15T22:42:06;14.90;;;2.05;;
51985;SDS011;38002;53.296;6.600;2023-05-15T22:47:07;7.68;;;2.13;;
51985;SDS011;38002;53.296;6.600;2023-05-15T22:52:07;11.43;;;1.67;;
51985;SDS011;38002;53.296;6.600;2023-05-15T22:57:08;11.80;;;2.50;;
51985;SDS011;38002;53.296;6.600;2023-05-15T23:02:08;11.95;;;2.15;;
51985;SDS011;38002;53.296;6.600;2023-05-15T23:07:09;11.80;;;2.47;;
51985;SDS011;38002;53.296;6.600;2023-05-15T23:12:09;10.02;;;1.80;;
51985;SDS011;38002;53.296;6.600;2023-05-15T23:17:10;10.25;;;2.10;;
51985;SDS011;38002;53.296;6.600;2023-05-15T23:22:11;13.75;;;2.20;;
51985;SDS011;38002;53.296;6.600;2023-05-15T23:27:11;15.95;;;2.50;;
51985;SDS011;38002;53.296;6.600;2023-05-15T23:32:12;9.25;;;1.75;;
51985;SDS011;38002;53.296;6.600;2023-05-15T23:37:12;12.57;;;1.88;;
51985;SDS011;38002;53.296;6.600;2023-05-15T23:42:13;12.82;;;1.60;;
51985;SDS011;38002;53.296;6.600;2023-05-15T23:47:14;14.20;;;2.22;;
51985;SDS011;38002;53.296;6.600;2023-05-15T23:52:15;12.77;;;2.15;;
51985;SDS011;38002;53.296;6.600;2023-05-15T23:57:15;9.15;;;2.20;;
